Airfield :
LOGIN :

Register | Disclaimer

   EN    FR    IT 

 










Legend :    VFR   Marginal VFR   IFR   Intensive IFR   Very Intensive IFR
Visi :
Ceiling :
>= 8 km
>= 3000ft
5 to 8 km
1000 to 3000 ft
1500m to 5 km
500 to 1000 ft
800 to 1500m
200 to 500 ft
< 800m
< 200 ft
Symbols :   Thunderstorms  Fog  Heavy snow  Heavy precipitations  Wind > 20 kt
SIGMETs :     Misc.  Thunderstorms  Icing  Turbulence  Mountain Waves  Volcanic Ashes







- Airport Elevation : 117 ft
- IATA code : NWI
- Download approach charts


EGSH - Norwich

CURRENT METAR :
  • 211620Z 17012KT 5000 RA BKN006 02/01 Q1010 TEMPO 3000 RADZ BKN003

EXPIRED METARs :
  • 211550Z 17010KT 6000 -RA BKN006 02/01 Q1011 TEMPO 3000 RADZ BKN003
  • 211520Z 16009KT 120V200 5000 -RA BR BKN006 OVC008 02/01 Q1011 TEMPO 1200 RADZ BKN001
  • 211450Z 17008KT 150V210 5000 -RASN BR BKN006 OVC008 02/01 Q1012 TEMPO 1200 RADZ BKN001
  • 211420Z 19008KT 150V220 5000 -RASN BR BKN006 OVC008 02/01 Q1012
  • 211350Z 18007KT 150V210 5000 BR BKN010 02/01 Q1012 TEMPO 0700 SNRA BKN004

TAF TAF EGSH
Valid from the 21 at 15:00 until the 22 at 00:00 UTC


211412Z 2115/2124 17007KT 6000 SCT010
PROB40
TEMPO 2115/2118 0700 RASN FG BKN001
TEMPO 2118/2124 3000 RADZ BR BKN004
ATIS : +44 1603 420 640
No reported NOTAMs for that airfield.
1 SIGMET reported for the London FIR (EGTT) :
 
Severe icing
EGTT SIGMET 05 VALID 211500/211900 EGRR
EGTT LONDON FIR SEV ICE FCST WI N5500 W00100 - N5500 E00005 - N5358 E00059 - N5305 W00028 - N5500 W00233 - N5500 W00100 FL020/140 MOV NE 20KT NC=



MET'MAP, your aeronautical weather chart ! - Copyright ORBIFLY December 2007 - Disclaimer

ORBIFLY MET'MAP TEAM :

Programming & Development : Alexandra Zaïnal
Concept & Development : Baudouin d'Aumeries
Co-Development & Prog : Marc-Olivier Méhu
Technical & hardware support : Manuel Goepfert

Contact : metmap@orbifly.com




SOURCES & CREDITS :

   NOAA